Time;durP1;ratioP1;P1;durP2;ratioP2;P2;SDS_P1;SDS_P2;PMS_P1;PMS_P2;Temp;Humidity;BMP_temperature;BMP_pressure;BME280_temperature;BME280_humidity;BME280_pressure;Samples;Min_cycle;Max_cycle;Signal;HPM_P1;HPM_P2
2023/03/22 00:00:37;;;;;;;13.77;7.95;;;;;;;9.83;86.25;100873.13;5134454;27;20029;-57
2023/03/22 00:03:04;;;;;;;10.55;7.18;;;;;;;9.84;86.06;100875.69;5115317;27;20128;-57
2023/03/22 00:05:30;;;;;;;13.57;7.28;;;;;;;9.75;86.49;100874.44;5111232;27;20027;-57
2023/03/22 00:07:58;;;;;;;12.68;7.60;;;;;;;9.69;86.43;100864.16;5123596;27;20037;-57
2023/03/22 00:10:25;;;;;;;11.32;7.18;;;;;;;9.76;86.46;100867.31;5116423;27;20019;-57
2023/03/22 00:12:51;;;;;;;8.65;7.18;;;;;;;9.52;86.40;100870.47;5133859;27;20023;-57
2023/03/22 00:15:17;;;;;;;10.40;7.18;;;;;;;9.64;86.71;100868.03;5141287;27;20031;-57
2023/03/22 00:17:44;;;;;;;16.23;8.30;;;;;;;9.64;87.04;100863.56;5136896;27;20030;-57
2023/03/22 00:20:10;;;;;;;9.98;7.07;;;;;;;9.64;86.73;100860.94;5155628;27;20034;-57
2023/03/22 00:22:37;;;;;;;9.80;7.30;;;;;;;9.67;86.64;100851.94;5134159;27;20030;-58
2023/03/22 00:25:04;;;;;;;10.38;8.07;;;;;;;9.62;86.70;100854.88;5124954;27;20054;-57
2023/03/22 00:27:30;;;;;;;10.50;8.20;;;;;;;9.59;86.92;100852.41;5134625;27;20432;-58
2023/03/22 00:29:58;;;;;;;12.10;7.93;;;;;;;9.57;87.04;100843.66;5115518;27;20023;-57
2023/03/22 00:32:24;;;;;;;12.05;7.95;;;;;;;9.46;87.51;100833.66;5134381;27;20031;-57
2023/03/22 00:34:49;;;;;;;13.02;7.07;;;;;;;9.49;87.76;100836.13;5134295;27;20526;-57
2023/03/22 00:37:15;;;;;;;10.85;7.63;;;;;;;9.44;87.83;100824.94;5134461;27;20215;-57
2023/03/22 00:39:43;;;;;;;13.27;8.07;;;;;;;9.52;88.01;100827.97;5134656;27;20027;-58
2023/03/22 00:42:09;;;;;;;14.82;7.68;;;;;;;9.55;88.21;100825.16;5126578;27;20061;-57
2023/03/22 00:44:35;;;;;;;12.85;7.85;;;;;;;9.47;88.41;100827.44;5135713;27;20049;-57
2023/03/22 00:47:00;;;;;;;12.73;8.23;;;;;;;9.45;88.77;100816.03;5155001;27;20022;-57
2023/03/22 00:49:26;;;;;;;11.43;8.85;;;;;;;9.45;89.15;100816.03;5117261;27;20121;-57
2023/03/22 00:51:52;;;;;;;14.23;8.68;;;;;;;9.43;89.17;100819.72;5131217;27;20034;-57
2023/03/22 00:54:20;;;;;;;14.43;8.88;;;;;;;9.39;89.20;100813.75;5117084;27;20102;-57
2023/03/22 00:56:45;;;;;;;14.32;8.93;;;;;;;9.40;89.85;100807.47;5134483;27;20370;-57
2023/03/22 00:59:15;;;;;;;13.38;8.93;;;;;;;9.38;90.02;100809.34;5114021;27;20030;-57
2023/03/22 01:01:40;;;;;;;;;;;;;;;9.52;88.61;100800.59;5130067;27;20402;-57
2023/03/22 01:04:08;;;;;;;15.45;10.43;;;;;;;9.39;90.31;100795.16;5114473;27;19936;-57
2023/03/22 01:06:34;;;;;;;17.42;10.55;;;;;;;9.43;90.96;100796.69;5132519;27;20039;-57
2023/03/22 01:09:03;;;;;;;14.88;10.45;;;;;;;9.37;90.77;100785.56;5133579;27;20430;-57
2023/03/22 01:11:31;;;;;;;18.75;11.95;;;;;;;9.35;91.34;100769.72;5115974;27;20023;-57
2023/03/22 01:13:58;;;;;;;15.05;10.63;;;;;;;9.44;92.00;100784.25;5124856;27;20019;-57
2023/03/22 01:16:23;;;;;;;18.50;11.25;;;;;;;9.43;92.71;100780.75;5153677;27;20030;-57
2023/03/22 01:18:49;;;;;;;14.60;11.68;;;;;;;9.46;92.51;100775.25;5154367;27;20433;-57
2023/03/22 01:21:14;;;;;;;18.20;11.77;;;;;;;9.49;92.68;100769.75;5154151;27;20098;-58
2023/03/22 01:23:39;;;;;;;16.75;12.48;;;;;;;9.49;93.06;100771.56;5153716;27;20049;-57
2023/03/22 01:26:05;;;;;;;18.65;12.25;;;;;;;9.45;93.39;100756.78;5137937;27;20158;-57
2023/03/22 01:28:31;;;;;;;14.65;12.65;;;;;;;9.45;93.60;100741.69;5153166;27;20071;-57
2023/03/22 01:31:00;;;;;;;18.52;13.80;;;;;;;9.53;93.72;100746.56;5121012;27;20021;-57
2023/03/22 01:33:25;;;;;;;16.13;12.27;;;;;;;9.53;93.76;100734.13;5133274;27;20027;-57
2023/03/22 01:35:50;;;;;;;15.88;12.68;;;;;;;9.58;94.10;100725.03;5114612;27;20023;-57
2023/03/22 01:38:16;;;;;;;19.83;13.80;;;;;;;9.51;94.35;100713.94;5116047;27;20108;-57
2023/03/22 01:40:41;;;;;;;16.25;13.68;;;;;;;9.61;94.61;100717.72;5133275;27;20367;-57
2023/03/22 01:43:14;;;;;;;19.20;13.98;;;;;;;9.61;94.63;100715.06;5132724;27;20042;-57
2023/03/22 01:45:44;;;;;;;17.48;14.55;;;;;;;9.62;94.95;100710.59;5116213;27;20091;-57
2023/03/22 01:48:09;;;;;;;;;;;;;;;9.70;93.54;100709.19;5154470;27;20027;-57
2023/03/22 01:50:41;;;;;;;18.58;13.77;;;;;;;9.63;95.16;100694.59;5130852;27;20301;-57
2023/03/22 01:53:09;;;;;;;15.10;13.50;;;;;;;9.59;95.41;100689.56;5132891;27;20067;-57
2023/03/22 01:55:36;;;;;;;16.40;14.70;;;;;;;9.65;95.87;100694.50;5114191;27;20023;-57
2023/03/22 01:58:03;;;;;;;18.88;14.90;;;;;;;9.66;96.33;100693.56;5114678;28;20023;-57
2023/03/22 02:00:29;;;;;;;17.25;15.43;;;;;;;9.68;96.15;100694.31;5132408;27;20155;-57
2023/03/22 02:02:54;;;;;;;17.17;15.38;;;;;;;9.67;96.35;100685.47;5133952;27;20110;-57
2023/03/22 02:05:21;;;;;;;18.42;15.63;;;;;;;9.68;96.61;100675.72;5130614;27;20098;-57
2023/03/22 02:07:49;;;;;;;19.25;14.27;;;;;;;9.63;96.50;100667.19;5114372;28;20031;-57
2023/03/22 02:10:20;;;;;;;16.55;14.50;;;;;;;9.67;96.73;100681.97;5132514;27;20020;-57
2023/03/22 02:13:15;;;;;;;22.13;15.18;;;;;;;9.69;96.86;100674.78;5134208;27;20351;-57
2023/03/22 02:15:54;;;;;;;19.85;15.75;;;;;;;9.66;97.19;100664.34;5130671;28;20027;-57
2023/03/22 02:18:55;;;;;;;21.17;17.55;;;;;;;9.71;97.11;100668.41;5114435;28;20057;-57
2023/03/22 02:21:54;;;;;;;18.95;16.98;;;;;;;9.72;96.90;100666.63;5118818;27;20039;-57
2023/03/22 02:25:06;;;;;;;17.80;15.98;;;;;;;9.73;97.31;100668.31;5132284;28;20042;-57
2023/03/22 02:27:47;;;;;;;17.38;15.52;;;;;;;9.71;97.46;100664.91;5133767;27;20019;-57
2023/03/22 02:30:51;;;;;;;18.65;16.73;;;;;;;9.78;97.21;100664.41;5135663;27;20026;-57
2023/03/22 02:33:35;;;;;;;16.90;15.23;;;;;;;9.74;97.08;100660.25;5134025;27;20030;-57
2023/03/22 02:36:13;;;;;;;17.55;15.43;;;;;;;9.75;96.87;100654.00;5152867;27;20062;-57
2023/03/22 02:39:03;;;;;;;16.73;14.68;;;;;;;9.77;97.33;100657.41;5149765;27;20050;-57
2023/03/22 02:41:49;;;;;;;16.25;14.38;;;;;;;9.80;97.00;100650.22;5111189;28;20071;-57
2023/03/22 02:44:41;;;;;;;18.08;14.77;;;;;;;9.76;97.13;100645.09;5117805;28;20482;-57
2023/03/22 02:47:10;;;;;;;16.13;14.52;;;;;;;9.73;97.31;100653.22;5119621;28;20466;-57
2023/03/22 02:49:48;;;;;;;16.70;14.10;;;;;;;9.82;96.62;100646.47;5137426;27;20027;-57
2023/03/22 02:52:23;;;;;;;16.58;14.85;;;;;;;9.80;96.55;100651.06;5132430;28;20030;-57
2023/03/22 02:55:08;;;;;;;15.75;13.98;;;;;;;9.80;96.43;100643.09;5115831;27;20068;-57
2023/03/22 02:57:45;;;;;;;15.00;12.82;;;;;;;9.76;96.60;100633.59;5121025;27;20437;-57
2023/03/22 03:00:13;;;;;;;15.13;13.52;;;;;;;9.74;96.38;100619.56;5138162;27;20088;-57
2023/03/22 03:02:44;;;;;;;14.00;12.23;;;;;;;9.81;96.34;100633.31;5157044;27;20481;-57
2023/03/22 03:05:11;;;;;;;14.77;13.30;;;;;;;9.77;95.91;100630.00;5138021;27;20050;-57
2023/03/22 03:07:38;;;;;;;14.32;11.93;;;;;;;9.79;96.00;100628.09;5154947;27;20043;-57
2023/03/22 03:10:05;;;;;;;13.63;12.23;;;;;;;9.74;95.89;100611.63;5138220;27;20079;-57
2023/03/22 03:12:30;;;;;;;13.10;11.80;;;;;;;9.79;95.51;100622.78;5155956;27;20056;-57
2023/03/22 03:14:56;;;;;;;13.98;12.20;;;;;;;9.79;95.40;100620.13;5156077;27;20400;-57
2023/03/22 03:17:33;;;;;;;13.90;12.43;;;;;;;9.81;95.25;100620.88;5156618;27;20048;-57
2023/03/22 03:20:13;;;;;;;12.57;11.32;;;;;;;9.81;94.96;100626.19;5154560;27;20054;-57
2023/03/22 03:22:52;;;;;;;12.77;11.55;;;;;;;9.81;94.70;100612.91;5156724;27;20068;-58
2023/03/22 03:25:37;;;;;;;14.20;10.43;;;;;;;9.83;94.29;100613.69;5142199;27;20039;-57
2023/03/22 03:28:14;;;;;;;12.38;11.07;;;;;;;9.80;94.63;100619.19;5115429;27;20668;-57
2023/03/22 03:30:52;;;;;;;11.73;9.85;;;;;;;9.78;94.57;100611.31;5130253;27;20443;-57
2023/03/22 03:33:22;;;;;;;12.52;10.43;;;;;;;9.80;94.43;100607.72;5124006;27;20098;-58
2023/03/22 03:35:53;;;;;;;;;;;;;;;9.98;93.29;100622.47;5115000;27;20036;-57
2023/03/22 03:38:25;;;;;;;12.82;10.23;;;;;;;9.83;93.88;100615.50;5123332;27;19919;-57
2023/03/22 03:40:59;;;;;;;12.90;9.95;;;;;;;9.84;93.84;100615.38;5122017;27;20031;-57
2023/03/22 03:43:25;;;;;;;11.90;9.32;;;;;;;9.84;93.17;100606.56;5106669;28;20023;-58
2023/03/22 03:45:52;;;;;;;13.35;9.55;;;;;;;9.83;93.48;100604.88;5114480;27;20032;-57
2023/03/22 03:48:21;;;;;;;10.75;9.65;;;;;;;9.82;93.10;100619.06;5113324;27;20034;-57
2023/03/22 03:50:49;;;;;;;13.38;8.98;;;;;;;9.81;93.12;100618.22;5110539;27;20030;-57
2023/03/22 03:53:15;;;;;;;11.40;9.15;;;;;;;9.75;93.11;100614.16;5124413;27;20020;-57
2023/03/22 03:55:40;;;;;;;12.45;9.20;;;;;;;9.73;92.80;100615.19;5114521;28;20371;-57
2023/03/22 03:58:08;;;;;;;11.70;8.88;;;;;;;9.74;93.02;100616.91;5122435;27;20355;-57
2023/03/22 04:00:34;;;;;;;9.40;8.45;;;;;;;9.70;92.90;100620.69;5122811;27;20425;-57
2023/03/22 04:02:59;;;;;;;12.90;8.73;;;;;;;9.64;93.30;100621.94;5124249;27;20027;-57
2023/03/22 04:05:25;;;;;;;10.38;8.60;;;;;;;9.73;93.08;100625.81;5114026;27;20039;-57
2023/03/22 04:07:50;;;;;;;10.02;8.70;;;;;;;9.65;93.43;100615.69;5132639;27;20020;-57
2023/03/22 04:10:16;;;;;;;12.30;9.18;;;;;;;9.64;92.50;100619.28;5111488;27;20034;-57
2023/03/22 04:12:41;;;;;;;11.75;9.13;;;;;;;9.64;92.80;100615.78;5117800;27;20054;-57
2023/03/22 04:15:07;;;;;;;10.30;8.63;;;;;;;9.62;92.89;100618.53;5132618;27;20050;-57
2023/03/22 04:17:32;;;;;;;11.63;9.30;;;;;;;9.61;93.31;100618.63;5127026;27;20061;-57
2023/03/22 04:19:58;;;;;;;12.35;9.10;;;;;;;9.56;93.23;100610.97;5127308;27;20019;-57
2023/03/22 04:22:25;;;;;;;13.90;8.70;;;;;;;9.54;93.06;100608.41;5116267;27;20027;-57
2023/03/22 04:24:50;;;;;;;12.80;8.85;;;;;;;9.51;93.25;100610.41;5099997;28;20044;-57
2023/03/22 04:27:17;;;;;;;12.77;9.38;;;;;;;9.51;93.51;100603.28;5124076;27;20039;-57
2023/03/22 04:29:47;;;;;;;12.38;8.40;;;;;;;9.50;93.08;100600.72;5125996;27;20066;-57
2023/03/22 04:32:15;;;;;;;9.45;8.43;;;;;;;9.50;93.51;100598.06;5114295;27;20030;-57
2023/03/22 04:34:41;;;;;;;13.55;8.75;;;;;;;9.50;93.35;100598.06;5115273;27;20044;-57
2023/03/22 04:37:06;;;;;;;12.88;9.48;;;;;;;9.47;93.20;100600.91;5140789;27;20028;-56
2023/03/22 04:39:32;;;;;;;14.63;9.73;;;;;;;9.44;93.34;100599.31;5138399;27;20485;-57
2023/03/22 04:41:57;;;;;;;10.38;8.18;;;;;;;9.46;93.20;100589.44;5119357;27;20023;-57
2023/03/22 04:44:25;;;;;;;16.10;8.98;;;;;;;9.49;93.00;100593.69;5154450;27;20023;-56
2023/03/22 04:46:53;;;;;;;12.95;9.02;;;;;;;9.43;93.59;100588.78;5131337;27;20023;-57
2023/03/22 04:49:18;;;;;;;10.65;8.63;;;;;;;9.42;93.00;100598.56;5134319;27;20019;-57
2023/03/22 04:51:44;;;;;;;13.80;8.60;;;;;;;9.40;93.48;100597.78;5130554;27;20108;-57
2023/03/22 04:54:12;;;;;;;11.15;8.85;;;;;;;9.41;93.87;100588.00;5134709;27;20046;-57
2023/03/22 04:56:37;;;;;;;13.02;9.23;;;;;;;9.40;93.29;100594.28;5114750;27;20023;-57
2023/03/22 04:59:03;;;;;;;11.32;8.75;;;;;;;9.45;93.29;100592.19;5121692;27;20041;-56
2023/03/22 05:01:28;;;;;;;9.60;8.25;;;;;;;9.46;92.78;100596.56;5133105;27;20029;-57
2023/03/22 05:03:53;;;;;;;10.48;8.57;;;;;;;9.46;92.84;100593.91;5115588;27;20433;-57
2023/03/22 05:06:19;;;;;;;12.57;7.97;;;;;;;9.40;93.07;100575.69;5131812;27;20063;-57
2023/03/22 05:08:44;;;;;;;12.30;7.95;;;;;;;9.46;92.61;100585.94;5131817;27;20027;-56
2023/03/22 05:11:15;;;;;;;13.13;9.15;;;;;;;9.47;92.74;100588.50;5144008;27;20109;-57
2023/03/22 05:13:43;;;;;;;10.52;8.00;;;;;;;9.44;92.61;100586.03;5113225;28;20023;-57
2023/03/22 05:16:09;;;;;;;12.32;8.52;;;;;;;9.43;92.56;100573.69;5112575;28;20144;-57
2023/03/22 05:18:41;;;;;;;14.45;9.23;;;;;;;9.44;92.61;100583.38;5112402;28;20043;-56
2023/03/22 05:21:12;;;;;;;13.05;8.60;;;;;;;9.41;92.60;100569.44;5124511;27;20038;-57
2023/03/22 05:23:38;;;;;;;15.63;7.68;;;;;;;9.42;92.32;100573.81;5127545;27;20473;-56
2023/03/22 05:26:07;;;;;;;11.32;8.10;;;;;;;9.41;92.17;100577.41;5134263;27;20034;-56
2023/03/22 05:28:33;;;;;;;13.60;7.77;;;;;;;9.43;91.78;100581.66;5133681;27;20107;-57
2023/03/22 05:30:58;;;;;;;15.77;8.52;;;;;;;9.42;91.36;100582.63;5136986;27;20731;-57
2023/03/22 05:33:24;;;;;;;12.18;8.57;;;;;;;9.41;91.70;100586.25;5118754;27;20027;-57
2023/03/22 05:35:50;;;;;;;10.55;7.88;;;;;;;9.43;91.45;100592.28;5114895;27;20107;-56
2023/03/22 05:38:15;;;;;;;9.98;7.82;;;;;;;9.44;91.49;100579.84;5138950;27;20068;-56
2023/03/22 05:40:42;;;;;;;10.15;7.57;;;;;;;9.44;91.41;100578.09;5121874;27;20390;-57
2023/03/22 05:43:07;;;;;;;10.30;7.78;;;;;;;9.42;91.53;100574.66;5114867;27;20644;-56
2023/03/22 05:45:35;;;;;;;12.35;7.13;;;;;;;9.41;91.34;100580.94;5131452;27;20102;-56
2023/03/22 05:48:01;;;;;;;10.75;7.68;;;;;;;9.41;91.24;100578.28;5126723;27;20477;-56
2023/03/22 05:50:26;;;;;;;13.95;7.90;;;;;;;9.43;90.69;100578.16;5153685;27;20026;-56
2023/03/22 05:52:52;;;;;;;12.25;7.68;;;;;;;9.43;90.54;100588.78;5136026;27;20019;-57
2023/03/22 05:55:17;;;;;;;12.52;8.02;;;;;;;9.41;90.66;100577.41;5110388;27;20103;-57
2023/03/22 05:57:45;;;;;;;16.48;8.50;;;;;;;9.42;90.40;100584.44;5132270;27;20015;-56
2023/03/22 06:00:13;;;;;;;13.23;8.25;;;;;;;9.44;90.52;100588.69;5116933;27;21350;-57
2023/03/22 06:02:45;;;;;;;12.13;8.60;;;;;;;9.42;91.05;100592.41;5109248;27;20025;-56
2023/03/22 06:05:12;;;;;;;9.30;8.05;;;;;;;9.46;90.40;100586.78;5134017;27;20035;-57
2023/03/22 06:07:38;;;;;;;10.00;8.18;;;;;;;9.45;90.22;100585.09;5145165;27;20030;-57
2023/03/22 06:10:06;;;;;;;14.75;7.72;;;;;;;9.45;90.51;100581.59;5134852;27;20026;-56
2023/03/22 06:12:32;;;;;;;13.15;7.75;;;;;;;9.47;90.38;100577.00;5134757;27;20114;-56
2023/03/22 06:14:57;;;;;;;11.95;8.05;;;;;;;9.50;90.32;100582.13;5153044;27;20098;-56
2023/03/22 06:17:23;;;;;;;9.98;7.68;;;;;;;9.53;89.81;100585.47;5145900;27;20397;-56
2023/03/22 06:19:53;;;;;;;14.40;8.68;;;;;;;9.49;90.29;100575.13;5152364;27;20369;-57
2023/03/22 06:22:18;;;;;;;;;;;;;;;9.59;89.90;100576.25;5135154;27;20039;-57
2023/03/22 06:24:44;;;;;;;10.88;7.82;;;;;;;9.53;89.52;100582.81;5125605;27;20412;-57
2023/03/22 06:27:10;;;;;;;14.65;9.10;;;;;;;9.54;89.60;100584.50;5142797;27;20030;-57
2023/03/22 06:29:37;;;;;;;12.93;8.35;;;;;;;9.51;89.65;100563.47;5145357;27;20024;-57
2023/03/22 06:32:03;;;;;;;15.10;8.68;;;;;;;9.59;89.39;100578.03;5139164;27;20373;-56
2023/03/22 06:34:29;;;;;;;13.55;8.20;;;;;;;9.60;89.86;100591.22;5156778;27;20105;-57
2023/03/22 06:36:56;;;;;;;14.38;7.72;;;;;;;9.69;88.83;100584.47;5157282;27;20030;-57
2023/03/22 06:39:25;;;;;;;13.55;8.82;;;;;;;9.71;88.93;100583.44;5138561;27;20091;-56
2023/03/22 06:41:51;;;;;;;13.63;8.43;;;;;;;9.71;89.07;100587.91;5139067;27;20030;-57
2023/03/22 06:44:16;;;;;;;11.20;8.07;;;;;;;9.70;89.14;100588.84;5136715;27;20023;-56
2023/03/22 06:46:42;;;;;;;11.00;7.82;;;;;;;9.73;88.83;100581.50;5145285;27;20106;-56
2023/03/22 06:49:08;;;;;;;12.00;8.82;;;;;;;9.74;89.24;100588.56;5138694;27;20022;-57
2023/03/22 06:51:33;;;;;;;11.40;7.78;;;;;;;9.81;88.94;100594.31;5154406;27;20057;-57
2023/03/22 06:54:01;;;;;;;15.45;8.30;;;;;;;9.79;89.21;100585.59;5157333;27;20043;-57
2023/03/22 06:56:26;;;;;;;16.08;9.05;;;;;;;9.85;88.67;100579.03;5138260;27;20034;-57
2023/03/22 06:58:53;;;;;;;12.63;8.98;;;;;;;9.92;88.62;100577.69;5157162;27;20092;-57
2023/03/22 07:01:22;;;;;;;15.68;8.77;;;;;;;9.92;87.96;100567.06;5137057;27;20027;-57
2023/03/22 07:03:52;;;;;;;14.65;8.90;;;;;;;10.07;86.73;100592.66;5123831;27;20028;-56
2023/03/22 07:06:17;;;;;;;10.60;8.60;;;;;;;10.04;86.22;100571.59;5134235;27;20394;-56
2023/03/22 07:08:45;;;;;;;14.63;8.85;;;;;;;10.07;86.37;100589.97;5136614;27;20022;-56
2023/03/22 07:11:10;;;;;;;11.13;8.77;;;;;;;9.97;86.78;100580.88;5135827;27;20435;-57
2023/03/22 07:13:38;;;;;;;15.13;8.70;;;;;;;10.05;86.20;100577.75;5118803;27;20023;-57
2023/03/22 07:16:04;;;;;;;14.38;8.25;;;;;;;10.04;86.70;100582.22;5118165;27;20025;-56
2023/03/22 07:18:30;;;;;;;11.82;8.85;;;;;;;10.04;86.43;100576.06;5140233;27;20027;-56
2023/03/22 07:20:55;;;;;;;14.98;9.05;;;;;;;10.05;85.20;100583.91;5098010;27;20055;-56
2023/03/22 07:23:20;;;;;;;16.90;9.43;;;;;;;10.09;85.53;100576.59;5134600;27;20100;-57
2023/03/22 07:25:47;;;;;;;12.23;9.50;;;;;;;10.17;85.24;100588.41;5132913;27;20042;-56
2023/03/22 07:28:14;;;;;;;11.05;9.10;;;;;;;10.20;84.33;100580.25;5135819;27;20034;-56
2023/03/22 07:30:39;;;;;;;12.48;9.77;;;;;;;10.24;84.94;100588.88;5154536;27;20018;-57
2023/03/22 07:33:06;;;;;;;15.15;9.70;;;;;;;10.28;85.01;100589.56;5118869;27;20477;-57
2023/03/22 07:35:32;;;;;;;13.98;10.15;;;;;;;10.32;84.44;100596.38;5135330;27;20087;-57
2023/03/22 07:37:58;;;;;;;16.27;9.52;;;;;;;10.39;83.56;100600.34;5117021;27;20015;-57
2023/03/22 07:40:24;;;;;;;13.48;9.68;;;;;;;10.43;83.39;100585.88;5135566;27;20058;-57
2023/03/22 07:42:50;;;;;;;11.93;9.07;;;;;;;10.41;82.78;100598.41;5138367;27;20046;-57
2023/03/22 07:45:17;;;;;;;14.68;10.00;;;;;;;10.48;83.29;100594.41;5155643;27;20019;-56
2023/03/22 07:47:43;;;;;;;14.25;8.65;;;;;;;10.50;82.77;100595.16;5151147;27;20035;-57
2023/03/22 07:50:12;;;;;;;15.55;8.90;;;;;;;10.60;82.69;100604.22;5135309;27;20019;-56
2023/03/22 07:52:41;;;;;;;13.35;7.60;;;;;;;10.73;82.11;100598.91;5127316;27;20015;-57
2023/03/22 07:55:09;;;;;;;13.68;8.25;;;;;;;10.78;80.54;100598.63;5100977;27;20032;-57
2023/03/22 07:57:35;;;;;;;14.57;7.65;;;;;;;10.76;79.15;100588.06;5114603;27;20035;-57
2023/03/22 08:00:00;;;;;;;14.43;6.72;;;;;;;10.73;79.74;100590.09;5109723;27;20459;-57
2023/03/22 08:02:26;;;;;;;11.88;6.88;;;;;;;10.81;78.81;100595.75;5125107;27;20034;-57
2023/03/22 08:04:53;;;;;;;12.35;6.90;;;;;;;10.72;78.97;100596.38;5114469;28;20033;-57
2023/03/22 08:07:24;;;;;;;15.93;7.40;;;;;;;10.66;79.23;100594.97;5126052;27;20431;-57
2023/03/22 08:09:50;;;;;;;10.85;6.68;;;;;;;10.74;79.40;100592.66;5118456;27;20553;-57
2023/03/22 08:12:16;;;;;;;11.40;7.38;;;;;;;10.79;79.32;100593.19;5130358;27;20115;-57
2023/03/22 08:14:45;;;;;;;14.18;6.95;;;;;;;10.87;78.86;100590.84;5104956;27;20524;-57
2023/03/22 08:17:10;;;;;;;10.85;5.85;;;;;;;10.89;77.31;100601.41;5140735;27;20030;-57
2023/03/22 08:19:35;;;;;;;12.40;5.90;;;;;;;10.91;77.85;100602.13;5133951;27;20430;-57
2023/03/22 08:22:02;;;;;;;11.60;7.15;;;;;;;10.90;77.45;100587.97;5136768;27;20015;-57
2023/03/22 08:24:27;;;;;;;14.23;7.60;;;;;;;11.10;77.27;100601.72;5125443;27;20039;-57
2023/03/22 08:26:53;;;;;;;12.57;7.07;;;;;;;11.14;76.25;100593.41;5101875;27;20100;-57
2023/03/22 08:29:22;;;;;;;11.82;6.68;;;;;;;11.25;75.99;100600.66;5155209;27;20031;-57
2023/03/22 08:31:48;;;;;;;12.13;6.70;;;;;;;11.35;76.44;100595.53;5100190;27;20071;-57
2023/03/22 08:34:13;;;;;;;12.10;7.55;;;;;;;11.41;76.27;100589.78;5121572;27;20030;-57
2023/03/22 08:36:41;;;;;;;16.42;7.65;;;;;;;11.36;75.09;100589.28;5115588;27;20020;-57
2023/03/22 08:39:07;;;;;;;14.23;6.70;;;;;;;11.40;75.68;100589.91;5115110;27;20026;-57
2023/03/22 08:41:33;;;;;;;14.20;7.25;;;;;;;11.41;75.60;100576.47;5133530;27;20045;-57
2023/03/22 08:43:59;;;;;;;8.18;6.03;;;;;;;11.53;75.06;100583.59;5115110;27;20029;-57
2023/03/22 08:46:25;;;;;;;14.30;6.70;;;;;;;11.51;74.82;100582.00;5133753;27;20019;-57
2023/03/22 08:48:50;;;;;;;11.15;7.60;;;;;;;11.48;74.91;100580.41;5113752;27;20023;-57
2023/03/22 08:51:20;;;;;;;9.25;8.05;;;;;;;11.53;74.38;100586.25;5093405;28;20105;-57
2023/03/22 08:53:47;;;;;;;11.00;6.28;;;;;;;11.62;73.90;100583.88;5128532;27;20015;-57
2023/03/22 08:56:15;;;;;;;14.93;7.13;;;;;;;11.60;74.42;100582.19;5133891;27;20023;-57
2023/03/22 08:58:47;;;;;;;13.55;6.82;;;;;;;11.62;73.79;100591.88;5141305;27;20106;-57
2023/03/22 09:01:13;;;;;;;13.52;6.47;;;;;;;11.63;73.35;100581.13;5126925;27;20020;-58
2023/03/22 09:03:39;;;;;;;11.60;6.13;;;;;;;11.66;72.85;100583.56;5127255;27;20367;-57
2023/03/22 09:06:05;;;;;;;12.00;5.95;;;;;;;11.61;73.30;100572.38;5133893;27;20037;-57
2023/03/22 09:08:32;;;;;;;13.77;5.95;;;;;;;11.72;72.45;100590.25;5115086;27;20022;-57
2023/03/22 09:10:58;;;;;;;12.93;6.18;;;;;;;11.79;71.90;100588.84;5110017;27;20358;-57
2023/03/22 09:13:26;;;;;;;13.05;5.57;;;;;;;11.79;72.84;100579.06;5146651;27;21140;-57
2023/03/22 09:15:51;;;;;;;13.35;6.15;;;;;;;11.90;72.74;100588.13;5128466;27;20095;-57
2023/03/22 09:18:18;;;;;;;12.32;6.63;;;;;;;11.89;71.19;100573.94;5111604;27;20596;-57
2023/03/22 09:20:44;;;;;;;12.45;5.97;;;;;;;11.99;70.72;100582.94;5107434;27;20526;-58
2023/03/22 09:23:11;;;;;;;17.67;6.53;;;;;;;12.02;71.27;100579.22;5135064;27;20067;-57
2023/03/22 09:25:36;;;;;;;12.63;5.43;;;;;;;12.14;70.92;100569.47;5112520;27;20120;-57
2023/03/22 09:28:02;;;;;;;11.80;5.70;;;;;;;12.12;70.68;100568.72;5128601;27;20038;-57
2023/03/22 09:30:28;;;;;;;10.68;5.55;;;;;;;12.14;70.85;100562.31;5113847;27;20015;-57
2023/03/22 09:32:53;;;;;;;10.88;5.15;;;;;;;12.18;71.18;100569.13;5132426;27;20356;-57
2023/03/22 09:35:19;;;;;;;14.20;6.10;;;;;;;12.20;70.81;100575.19;5132271;27;20027;-57
2023/03/22 09:37:44;;;;;;;9.80;5.00;;;;;;;12.22;71.15;100585.75;5133763;27;20023;-57
2023/03/22 09:40:14;;;;;;;12.25;5.20;;;;;;;12.18;69.71;100598.47;5113766;27;20037;-57
2023/03/22 09:42:45;;;;;;;;;;;;;;;12.32;70.01;100568.09;5120781;27;20030;-57
2023/03/22 09:45:15;;;;;;;13.15;5.43;;;;;;;12.00;70.39;100566.00;5128958;27;19919;-57
2023/03/22 09:47:52;;;;;;;16.00;6.10;;;;;;;11.92;70.56;100557.72;5092494;28;20020;-57
2023/03/22 09:50:28;;;;;;;12.45;5.53;;;;;;;11.94;70.36;100570.91;5112480;27;20039;-57
2023/03/22 09:52:54;;;;;;;10.85;5.22;;;;;;;11.79;70.60;100559.53;5122492;27;20039;-57
2023/03/22 09:55:43;;;;;;;9.43;5.45;;;;;;;11.91;71.62;100571.16;5131320;27;20019;-57
2023/03/22 09:58:28;;;;;;;11.35;5.20;;;;;;;11.92;71.01;100579.03;5132687;27;20031;-57
2023/03/22 10:01:01;;;;;;;11.32;5.32;;;;;;;11.90;70.53;100580.13;5131896;27;20049;-57
2023/03/22 10:03:44;;;;;;;11.73;6.10;;;;;;;11.98;70.66;100565.25;5121438;27;20084;-57
2023/03/22 10:06:17;;;;;;;12.50;5.90;;;;;;;11.86;71.55;100566.16;5120725;27;20038;-57
2023/03/22 10:08:49;;;;;;;10.98;5.78;;;;;;;11.81;70.52;100582.44;5121574;27;20024;-57
2023/03/22 10:11:29;;;;;;;8.45;5.20;;;;;;;11.73;71.82;100566.16;5129673;27;20034;-57
2023/03/22 10:14:04;;;;;;;11.40;5.55;;;;;;;11.72;71.33;100567.13;5146725;27;20042;-57
2023/03/22 10:16:33;;;;;;;12.15;5.75;;;;;;;11.73;71.87;100584.81;5132412;27;20415;-57
2023/03/22 10:19:28;;;;;;;14.15;5.90;;;;;;;11.74;72.56;100569.69;5093922;28;20088;-57
2023/03/22 10:21:56;;;;;;;14.45;6.05;;;;;;;11.63;72.28;100567.81;5117609;27;20039;-57
2023/03/22 10:24:34;;;;;;;11.00;5.40;;;;;;;11.62;73.49;100581.22;5147664;27;20043;-58
2023/03/22 10:27:01;;;;;;;14.77;5.50;;;;;;;11.48;74.22;100596.38;5132720;28;20019;-57
2023/03/22 10:29:42;;;;;;;10.73;6.13;;;;;;;11.48;75.79;100596.38;5113683;28;20184;-57
2023/03/22 10:32:17;;;;;;;12.75;6.00;;;;;;;11.37;78.02;100586.47;5133064;27;20091;-57
2023/03/22 10:34:43;;;;;;;14.48;6.72;;;;;;;11.26;81.15;100585.53;5134359;27;20026;-57
2023/03/22 10:37:19;;;;;;;11.30;6.60;;;;;;;11.24;81.55;100585.66;5153438;27;20015;-57
2023/03/22 10:39:49;;;;;;;12.13;6.43;;;;;;;10.97;84.59;100561.81;5138319;27;20031;-57
2023/03/22 10:42:22;;;;;;;10.77;5.80;;;;;;;11.01;85.25;100573.94;5130423;27;20114;-58
2023/03/22 10:44:59;;;;;;;14.82;6.35;;;;;;;11.10;86.53;100578.63;5114377;28;20050;-57
2023/03/22 10:47:47;;;;;;;12.68;6.35;;;;;;;10.97;87.00;100588.44;5132256;27;20029;-57
2023/03/22 10:50:20;;;;;;;12.10;6.53;;;;;;;10.93;87.87;100573.63;5114178;28;20100;-58
2023/03/22 10:52:56;;;;;;;13.63;6.43;;;;;;;10.94;88.54;100567.31;5132546;27;20412;-57
2023/03/22 10:55:23;;;;;;;14.27;6.32;;;;;;;10.95;88.71;100576.19;5106232;28;20034;-57
2023/03/22 10:58:11;;;;;;;9.95;6.57;;;;;;;11.00;90.86;100574.91;5093758;28;20046;-58
2023/03/22 11:00:49;;;;;;;12.35;6.82;;;;;;;10.89;88.78;100572.13;5113153;28;20023;-57
2023/03/22 11:03:30;;;;;;;13.13;6.90;;;;;;;10.85;91.25;100574.16;5114778;27;20030;-58
2023/03/22 11:06:10;;;;;;;11.23;6.80;;;;;;;10.83;91.50;100561.91;5128876;28;20023;-58
2023/03/22 11:08:49;;;;;;;9.95;6.43;;;;;;;10.80;91.04;100576.28;5131739;28;20130;-57
2023/03/22 11:11:34;;;;;;;12.40;7.07;;;;;;;10.80;91.26;100565.63;5119442;28;20035;-61
2023/03/22 11:14:12;;;;;;;15.38;7.97;;;;;;;10.73;93.96;100574.13;5117466;27;20485;-58
2023/03/22 11:17:04;;;;;;;15.18;7.70;;;;;;;10.77;92.11;100563.19;5130669;27;20042;-57
2023/03/22 11:20:00;;;;;;;13.65;7.55;;;;;;;10.81;92.93;100567.34;5109971;27;20575;-57
2023/03/22 11:22:38;;;;;;;13.82;7.28;;;;;;;10.87;90.62;100563.41;5120327;27;20580;-57
2023/03/22 11:25:16;;;;;;;15.15;7.78;;;;;;;10.87;92.18;100550.94;5125190;27;20030;-57
2023/03/22 11:28:21;;;;;;;12.30;6.78;;;;;;;11.02;91.27;100569.47;5156816;27;20496;-57
2023/03/22 11:30:56;;;;;;;11.77;6.50;;;;;;;10.98;91.63;100565.34;5078329;27;20046;-57
2023/03/22 11:33:24;;;;;;;11.43;6.60;;;;;;;10.99;91.28;100561.69;5137497;27;20015;-57